Log in Register

Login to your account

Username *
Password *
Remember Me

Create an account

Fields marked with an asterisk (*) are required.
Name *
Username *
Password *
Verify password *
Email *
Verify email *
Captcha *

Vous êtes passioné(e)s d'aviation ? Vous êtes interressé(e)s par une formation au pilotage ? Vous souhaitez offrir ou vous offrir un vol de découverte ?

Notre équipe dynamique vous accueille dans un environnement de vol exceptionel

Retrouvez toutes les informations qui peuvent vous interresser en parcourant notre site. N'hésitez pas à nous contacter si vous souhaitez en savoir plus ! 

Retrouvez nos horaires d'ouverture ici

⇓ RETROUVEZ TOUTES NOS ACTUS ET EVENEMENTS CI DESSOUS ⇓

 

IMG 7090 20

Nous contacter

 Téléphone : +33 (0)4 79 54 41 81

Coordonnées détaillées et accès : cliquez ici

facebook 770688 960 720  logo instagram large

[source: ADDS]
METAR / TAF
LFLB 042100Z AUTO 17005KT 9999 BKN054/// BKN064/// BKN100/// ///CB 22/17 Q1019 =
TAF LFLB 041400Z 0415/0515 33004KT 9999 SCT090 TEMPO 0415/0424 SCT090TCU PROB40 TEMPO 0415/0424 -SHRA FEW080CB SCT090TCU PROB30 TEMPO 0415/0424 VRB15G25KT 4000 TSRA BKN070CB BECMG 0418/0420 VRB02KT BECMG 0507/0509 04007KT

SR / SS: 03:52 / 19:28 UTC (Lever/Coucher du soleil le 2022-07-04)
JSN Boot template designed by JoomlaShine.com